Aviation Digital Data Service (ADDS)

Output produced by METARs form (2128 UTC 24 March 2019)
found at http://www.aviationweather.gov/metar/data/
 
KCAE 242109Z 2421/2518 16008KT P6SM BKN250 
     FM250100 19004KT P6SM SCT050 BKN250 WS015/22025KT 
     FM251500 22012G18KT P6SM BKN035
       
KCAK 241731Z 2418/2518 22009KT P6SM OVC120 
     FM242300 25006KT P6SM VCSH OVC060 
     FM250300 VRB03KT P6SM OVC045 
     FM250900 01008KT P6SM BKN025 OVC060 
     FM251200 03011KT P6SM BKN010 OVC090 
     FM251500 03010G18KT P6SM SCT035 BKN100
       
KCAR 241720Z 2418/2518 28011G19KT P6SM BKN060 
     FM241900 30011KT P6SM VCSH BKN060 
     FM250000 34007KT P6SM BKN090 
     FM251700 28012G21KT P6SM SCT045
       
TAF KCBM 241500Z 2415/2521 18006KT 9999 FEW050 SCT080 QNH3016INS 
     BECMG 2417/2418 20010G15KT 9999 VCSH SCT050 BKN080 QNH3006INS 
     BECMG 2501/2502 18009KT 9999 NSW OVC050 QNH3000INS 
     BECMG 2510/2511 21009KT 8000 -SHRA BKN020 OVC040 QNH3000INS 
     BECMG 2513/2514 25010G15KT 4800 SHRA BKN015 OVC030 QNH2998INS 
     BECMG 2518/2519 28012G18KT 9999 NSW SCT015 OVC030 QNH2994INS TX24/2420Z
TN11/2511Z
       
KCDC 241738Z 2418/2518 25008KT P6SM SCT060 SCT100 
     FM250300 16005KT P6SM SCT060 SCT100 
     FM251200 09006KT P6SM SCT100
       
KCDR 241733Z 2418/2518 01003KT 6SM BR BKN014 OVC030 
     FM250100 09006KT 6SM BR VCSH OVC015 
     FM250600 07005KT 3SM BR VCSH OVC010 
     FM250900 18006KT 1SM BR BKN011 
     FM251400 23006KT P6SM BKN014
       
KCDS 241734Z 2418/2518 03006KT P6SM SCT250
       
KCEC 241730Z 2418/2518 VRB05KT P6SM BKN250 
     FM242000 18010KT P6SM BKN250 
     FM250700 16015G25KT P6SM -RA OVC050 WS020/19030KT 
     FM251500 17010KT 6SM -RA BR OVC050 
     FM251700 18010KT 4SM -RA BR OVC050
       
TAF KCEF 241800Z 2418/2524 27012G18KT 9999 SCT120 BKN250 QNH2997INS 
     BECMG 2422/2423 VRB06KT 9999 FEW050 BKN120 QNH2999INS 
     BECMG 2508/2509 35010G15KT 9999 SCT025 BKN120 QNH2999INS 
     BECMG 2522/2523 VRB06KT 9999 SKC QNH3010INS TX16/2420Z TN02/2511Z
       
KCGI 241811Z 2418/2518 20011G19KT P6SM SCT060 
     FM242300 19009KT P6SM BKN060 
     FM250100 19009KT 3SM -TSRA BKN025CB 
     FM250600 23006KT P6SM BKN030 
     FM250900 30005KT 5SM BR BKN021 
     FM251100 33007KT P6SM OVC010
       
KCHA 241937Z 2420/2518 18010G20KT P6SM SCT150 BKN250 
     FM250000 VRB02KT P6SM VCSH OVC100 
     FM250400 VRB03KT P6SM OVC100 
     FM251500 20005KT P6SM VCSH OVC030
       
KCHO 241720Z 2418/2518 20010KT P6SM FEW150 SCT250 
     FM250000 20005KT P6SM SCT150 BKN250 
     FM251700 04004KT P6SM OVC070
       
KCHS 241732Z 2418/2518 15012G18KT P6SM SCT250 
     FM250100 18004KT P6SM BKN250 
     FM251500 21010KT P6SM SCT040 BKN200
       
KCID 241730Z 2418/2518 10008KT 4SM BR VCSH BKN008 OVC015 
     FM242100 06009KT 6SM BR SCT008 OVC020 
     FM242300 05008KT 5SM BR VCSH BKN008 OVC015 
     FM250300 04014G20KT P6SM BKN020 
     FM250900 03013KT P6SM SCT030 BKN040
       
KCKB 241720Z 2418/2518 23005KT P6SM BKN150 
     FM250000 27003KT P6SM OVC050 
     FM250400 30003KT P6SM -SHRA OVC050 
     FM250700 35003KT P6SM -SHRA OVC015 
     FM251000 03003KT P6SM OVC007 
     FM251400 04003KT 4SM -SHRA OVC007
       
KCKV 242058Z 2421/2518 19019G25KT P6SM BKN250 
     FM250400 20010KT 4SM -SHRA OVC040 
     FM251000 25008KT 3SM -SHRA BKN015 OVC030 
     FM251300 32009KT 5SM -SHRA OVC012
       
KCLE 242054Z 2421/2524 24012KT P6SM OVC080 
     FM250000 24005KT P6SM VCSH BKN060 
     FM250600 34008KT P6SM SCT020 OVC050 
     TEMPO 2507/2509 BKN020 
     FM250900 03012G22KT P6SM BKN020 OVC080 
     FM251200 04014G24KT P6SM BKN035 OVC100 
     FM251500 04014G24KT P6SM SCT080 BKN150 
     FM252300 01008KT P6SM SKC
       
KCLL 241730Z 2418/2518 20011KT P6SM SCT025 BKN035 
     FM250200 17010KT P6SM BKN025 
     FM250600 18007KT P6SM OVC015 
     FM250900 20004KT 5SM BR OVC005 
     FM251500 25006KT 4SM BR OVC008 
     FM251700 31008KT P6SM OVC015
       
KCLM 241720Z 2418/2518 25005KT P6SM BKN070 
     FM242200 32006KT P6SM BKN070 
     FM250300 25003KT P6SM SCT250 
     FM251500 10004KT P6SM BKN250
       
KCLT 242002Z 2420/2524 19010G18KT P6SM BKN200 
     FM250100 18005KT P6SM SCT120 
     FM251300 20005KT P6SM BKN050 
     PROB30 2516/2518 4SM -SHRA BR OVC025 
     FM251800 23008G16KT P6SM -SHRA BKN080
       
KCMA 241721Z 2418/2518 VRB03KT P6SM SKC 
     FM242000 23008KT P6SM SKC 
     FM250200 VRB03KT P6SM SKC 
     FM251700 24006KT P6SM SCT200
       
KCMH 241747Z 2418/2518 21008KT P6SM OVC080 
     FM242000 19008KT P6SM -SHRA OVC060 
     FM242300 VRB03KT P6SM VCSH OVC050 
     FM250600 03006KT P6SM VCSH OVC025 
     FM250900 04007KT P6SM VCSH OVC015 
     FM251200 04012KT P6SM OVC015
       
KCMI 242006Z 2420/2518 13011KT P6SM VCSH SCT006 BKN045 
     TEMPO 2420/2421 BKN006 
     FM250100 09005KT P6SM VCSH OVC018 
     FM250600 04012KT P6SM VCSH OVC013 
     FM251400 03014G23KT P6SM BKN012
       
KCMX 241725Z 2418/2518 04010KT P6SM SKC 
     FM250100 00000KT P6SM SKC 
     FM251400 30006KT P6SM SKC
       
KCNM 241722Z 2418/2518 26015G24KT P6SM SCT250 
     FM250100 29010KT P6SM SCT250
       
KCNU 242106Z 2421/2518 32012KT P6SM SCT100 
     FM250700 34008KT P6SM BKN060 
     FM250900 35008KT P6SM BKN010
       
KCNY 241740Z 2418/2518 11006KT P6SM SCT060 BKN100 
     FM242000 25012KT P6SM FEW080 SCT150 
     FM250100 28011KT P6SM FEW150 
     FM250600 VRB04KT P6SM SKC
       
KCOD 241726Z 2418/2518 03007KT P6SM SCT060 BKN110 
     FM250200 02008KT P6SM VCSH SCT030 OVC045 
     FM250900 28006KT P6SM SCT040 BKN070 AMD LTD TO CLD VIS AND WIND
       
KCOE 241732Z 2418/2518 10005KT P6SM OVC150 
     FM242200 07009KT P6SM -SHRA BKN035 OVC050 
     FM250600 16005KT P6SM BKN050 OVC100 
     FM251300 06005KT P6SM SCT250
       
TAF KCOF 241800Z 2418/2524 VRB06KT 9999 FEW045 SCT200 QNH3003INS TX25/2420Z
TN18/2511Z LAST NO AMDS AFT 2421 NEXT 2510
       
KCON 241720Z 2418/2518 27010KT P6SM FEW250 
     FM242200 28004KT P6SM SCT150 BKN250 
     FM251000 33007KT P6SM SCT250
       
KCOS 241738Z 2418/2518 15007KT P6SM FEW090 
     FM242000 14012KT P6SM VCTS SCT050CB BKN080 
     TEMPO 2421/2424 5SM -SHRA BR BKN040 
     FM250200 06007KT P6SM SCT080 SCT120 
     FM250700 02006KT P6SM FEW200 
     FM251700 15007KT P6SM SKC
       
KCOU 242032Z 2421/2518 23013G18KT P6SM -SHRA VCTS BKN028CB 
     FM242300 30008KT P6SM VCSH BKN035 
     FM250500 35007KT P6SM OVC017 
     FM251000 02010G16KT P6SM OVC007 
     FM251600 01012KT P6SM OVC015
       
KCPS 241739Z 2418/2518 18008KT P6SM BKN050 
     FM242300 13006KT 5SM -TSRA BKN040CB 
     TEMPO 2423/2502 VRB30KT 2SM TSRA BKN020CB 
     FM250200 36006KT P6SM OVC015 
     FM250600 35006KT P6SM VCSH OVC007 
     FM251000 03012G19KT 4SM BR VCSH OVC008 
     FM251600 01009KT P6SM OVC015
       
KCRE 241720Z 2418/2518 17009KT P6SM FEW250 
     FM250000 18002KT P6SM SCT250 
     FM251000 20003KT 6SM BR SCT040 SCT150 
     FM251500 20009KT P6SM SCT040 SCT100
       
KCRG 241726Z 2418/2518 12011KT P6SM SCT050 
     FM242300 13006KT P6SM FEW050 SCT250 
     FM250800 00000KT P6SM SCT060 SCT250 
     FM251400 21006KT P6SM SCT030 BKN060
       
KCRP 242002Z 2420/2518 15014G20KT P6SM BKN028 BKN040 
     FM242100 14017G23KT P6SM BKN035 BKN050 
     TEMPO 2422/2424 SCT035 SCT050 
     FM250100 15010KT P6SM SCT018 
     FM250400 16008KT P6SM BKN015 
     FM250900 16005KT 5SM BR BKN008 
     TEMPO 2510/2514 3SM BR OVC005 
     FM251500 16008KT 6SM BR OVC012
       
KCRQ 241726Z 2418/2518 VRB04KT P6SM SCT025 
     TEMPO 2418/2420 BKN025 
     FM242000 26008KT P6SM FEW020 
     FM250200 VRB04KT P6SM FEW015 
     FM250700 VRB04KT 4SM BR BKN008 
     FM251500 VRB04KT P6SM SCT010
       
KCRW 241720Z 2418/2518 24004KT P6SM BKN150 
     FM242300 22003KT P6SM OVC060 
     FM251000 10003KT P6SM OVC025 
     FM251300 06003KT 5SM -SHRA OVC015 
     FM251600 04003KT 5SM -SHRA OVC007
       
KCSG 241740Z 2418/2518 19008KT P6SM BKN250 
     FM250100 VRB03KT P6SM SCT200 
     FM251000 VRB03KT P6SM BKN080 
     FM251400 25006KT P6SM VCSH BKN050
       
KCSM 241732Z 2418/2518 01012KT P6SM BKN250 
     FM250500 03011KT P6SM SCT070 SCT120 
     FM251200 01013KT P6SM SCT025
       
KCSV 242100Z 2421/2518 19009G20KT P6SM BKN230 
     FM242300 19004KT P6SM VCSH SCT040 OVC090 
     FM250100 19004KT P6SM BKN070 
     FM250900 20006KT 5SM -SHRA BKN025 OVC040 
     FM251400 25007KT 3SM -SHRA OVC015
       
KCTB 242125Z 2421/2518 01011KT 6SM BR OVC004 
     FM250300 VRB04KT 1/2SM FG OVC003 
     FM251400 20009KT P6SM FEW035 SCT070
       
KCUB 242109Z 2421/2518 19007KT P6SM BKN250 
     FM250100 19003KT P6SM SCT050 BKN250 WS015/22025KT 
     FM251500 22010G16KT P6SM BKN035
       
KCVG 241747Z 2418/2524 21008KT P6SM VCSH OVC120 
     FM241900 21008KT P6SM -SHRA OVC080 
     FM242200 18005KT P6SM VCSH OVC050 
     FM250400 VRB03KT P6SM -RA OVC025 
     FM250600 VRB03KT 4SM -RA BR OVC015 
     TEMPO 2512/2515 2SM RA OVC008 
     FM251500 03012G18KT 5SM BR VCSH OVC015 
     FM251800 04014G20KT P6SM OVC015
       
TAF AMD KCVS 241924Z 2419/2524 30009KT 9999 BKN200 QNH3012INS 
     BECMG 2420/2421 26012G22KT 9999 SCT130 BKN200 QNH3008INS 
     BECMG 2500/2501 31008KT 9999 SKC QNH3007INS 
     BECMG 2514/2515 VRB06KT 9999 SKC QNH3022INS TX16/2422Z TN04/2511Z
       
KCWA 242028Z 2420/2518 02007KT P6SM SCT035 BKN150 
     TEMPO 2421/2424 BKN035 
     FM250000 04008KT P6SM BKN040 
     TEMPO 2500/2502 SCT040 
     FM250200 05006KT P6SM SKC 
     FM250900 04003KT P6SM SKC 
     FM251600 33004KT P6SM SKC
       
KCXO 242108Z 2421/2518 16012KT P6SM SCT030 BKN050 
     FM250100 16007KT P6SM SCT015 BKN020 
     FM250800 19004KT 5SM BR OVC005 
     FM251500 25007KT 6SM BR OVC007 
     FM251700 28008KT P6SM OVC015
       
KCXP 241732Z 2418/2518 VRB03KT P6SM SCT200 
     FM242300 12007KT P6SM BKN150 
     FM250900 VRB04KT P6SM BKN110 WS020/19035KT
       
KCYS 241733Z 2418/2518 34011KT P6SM BKN060 
     FM242100 21008KT P6SM VCSH BKN060 OVC100 
     FM250500 28010KT P6SM SCT250 
     FM251200 28012KT P6SM FEW100 SCT250 
     FM251700 28015G25KT P6SM FEW250